sensor_id;sensor_type;location;lat;lon;timestamp;pressure;altitude;pressure_sealevel;temperature;humidity
43147;BME280;28752;48.266;7.402;2023-04-19T00:02:22;99875.25;;;10.31;78.65
43147;BME280;28752;48.266;7.402;2023-04-19T00:04:47;99874.50;;;10.29;78.72
43147;BME280;28752;48.266;7.402;2023-04-19T00:07:13;99874.09;;;10.24;79.02
43147;BME280;28752;48.266;7.402;2023-04-19T00:09:38;99874.78;;;10.26;79.00
43147;BME280;28752;48.266;7.402;2023-04-19T00:12:04;99866.84;;;10.26;78.98
43147;BME280;28752;48.266;7.402;2023-04-19T00:14:29;99868.94;;;10.22;79.24
43147;BME280;28752;48.266;7.402;2023-04-19T00:16:55;99867.69;;;10.26;79.08
43147;BME280;28752;48.266;7.402;2023-04-19T00:19:20;99863.50;;;10.24;79.13
43147;BME280;28752;48.266;7.402;2023-04-19T00:21:47;99867.63;;;10.17;79.48
43147;BME280;28752;48.266;7.402;2023-04-19T00:24:13;99861.81;;;10.23;79.36
43147;BME280;28752;48.266;7.402;2023-04-19T00:26:38;99861.38;;;10.18;79.45
43147;BME280;28752;48.266;7.402;2023-04-19T00:29:04;99858.16;;;10.14;79.29
43147;BME280;28752;48.266;7.402;2023-04-19T00:31:29;99860.78;;;10.14;79.61
43147;BME280;28752;48.266;7.402;2023-04-19T00:33:55;99855.34;;;10.06;80.15
43147;BME280;28752;48.266;7.402;2023-04-19T00:36:21;99852.84;;;10.14;79.92
43147;BME280;28752;48.266;7.402;2023-04-19T00:38:46;99857.72;;;10.09;80.41
43147;BME280;28752;48.266;7.402;2023-04-19T00:41:11;99861.16;;;10.00;80.76
43147;BME280;28752;48.266;7.402;2023-04-19T00:43:37;99856.88;;;10.08;80.44
43147;BME280;28752;48.266;7.402;2023-04-19T00:46:02;99864.50;;;10.02;80.71
43147;BME280;28752;48.266;7.402;2023-04-19T00:48:28;99853.91;;;10.02;80.93
43147;BME280;28752;48.266;7.402;2023-04-19T00:50:55;99851.09;;;9.93;81.40
43147;BME280;28752;48.266;7.402;2023-04-19T00:53:20;99845.81;;;9.93;81.33
43147;BME280;28752;48.266;7.402;2023-04-19T00:55:46;99849.47;;;10.02;81.11
43147;BME280;28752;48.266;7.402;2023-04-19T00:58:12;99843.72;;;9.97;81.31
43147;BME280;28752;48.266;7.402;2023-04-19T01:00:37;99842.91;;;9.96;81.42
43147;BME280;28752;48.266;7.402;2023-04-19T01:03:03;99842.34;;;9.93;81.66
43147;BME280;28752;48.266;7.402;2023-04-19T01:05:29;99845.81;;;9.93;81.45
43147;BME280;28752;48.266;7.402;2023-04-19T01:07:54;99831.50;;;9.96;81.20
43147;BME280;28752;48.266;7.402;2023-04-19T01:10:20;99828.00;;;9.95;81.39
43147;BME280;28752;48.266;7.402;2023-04-19T01:12:45;99836.19;;;9.92;81.43
43147;BME280;28752;48.266;7.402;2023-04-19T01:15:10;99834.91;;;9.87;81.90
43147;BME280;28752;48.266;7.402;2023-04-19T01:17:36;99827.81;;;9.87;81.91
43147;BME280;28752;48.266;7.402;2023-04-19T01:20:03;99833.50;;;9.83;82.39
43147;BME280;28752;48.266;7.402;2023-04-19T01:22:30;99826.16;;;9.86;82.37
43147;BME280;28752;48.266;7.402;2023-04-19T01:24:56;99818.22;;;9.86;82.32
43147;BME280;28752;48.266;7.402;2023-04-19T01:27:22;99823.38;;;9.88;82.37
43147;BME280;28752;48.266;7.402;2023-04-19T01:29:48;99824.19;;;9.88;82.02
43147;BME280;28752;48.266;7.402;2023-04-19T01:32:13;99812.09;;;9.86;82.29
43147;BME280;28752;48.266;7.402;2023-04-19T01:34:39;99814.66;;;9.76;83.02
43147;BME280;28752;48.266;7.402;2023-04-19T01:37:04;99818.88;;;9.78;83.10
43147;BME280;28752;48.266;7.402;2023-04-19T01:39:30;99812.63;;;9.80;82.83
43147;BME280;28752;48.266;7.402;2023-04-19T01:41:55;99809.50;;;9.74;82.77
43147;BME280;28752;48.266;7.402;2023-04-19T01:44:20;99810.03;;;9.68;83.11
43147;BME280;28752;48.266;7.402;2023-04-19T01:46:46;99806.81;;;9.65;83.68
43147;BME280;28752;48.266;7.402;2023-04-19T01:49:12;99805.41;;;9.60;83.77
43147;BME280;28752;48.266;7.402;2023-04-19T01:51:38;99808.31;;;9.57;84.34
43147;BME280;28752;48.266;7.402;2023-04-19T01:54:03;99808.66;;;9.64;84.05
43147;BME280;28752;48.266;7.402;2023-04-19T01:56:29;99803.16;;;9.56;84.17
43147;BME280;28752;48.266;7.402;2023-04-19T01:58:55;99806.00;;;9.64;83.99
43147;BME280;28752;48.266;7.402;2023-04-19T02:01:20;99800.50;;;9.56;84.12
43147;BME280;28752;48.266;7.402;2023-04-19T02:03:45;99804.97;;;9.55;84.33
43147;BME280;28752;48.266;7.402;2023-04-19T02:06:11;99810.50;;;9.52;84.69
43147;BME280;28752;48.266;7.402;2023-04-19T02:08:38;99805.50;;;9.49;84.64
43147;BME280;28752;48.266;7.402;2023-04-19T02:11:07;99806.06;;;9.53;84.21
43147;BME280;28752;48.266;7.402;2023-04-19T02:13:33;99806.06;;;9.53;84.04
43147;BME280;28752;48.266;7.402;2023-04-19T02:15:59;99808.97;;;9.50;84.30
43147;BME280;28752;48.266;7.402;2023-04-19T02:18:26;99797.31;;;9.52;84.32
43147;BME280;28752;48.266;7.402;2023-04-19T02:20:57;99808.25;;;9.48;84.49
43147;BME280;28752;48.266;7.402;2023-04-19T02:23:23;99803.75;;;9.38;84.89
43147;BME280;28752;48.266;7.402;2023-04-19T02:25:48;99799.44;;;9.37;85.04
43147;BME280;28752;48.266;7.402;2023-04-19T02:28:14;99803.09;;;9.46;84.37
43147;BME280;28752;48.266;7.402;2023-04-19T02:30:39;99804.88;;;9.46;84.28
43147;BME280;28752;48.266;7.402;2023-04-19T02:33:04;99795.97;;;9.37;84.43
43147;BME280;28752;48.266;7.402;2023-04-19T02:35:30;99801.81;;;9.40;84.63
43147;BME280;28752;48.266;7.402;2023-04-19T02:37:55;99802.78;;;9.39;84.77
43147;BME280;28752;48.266;7.402;2023-04-19T02:40:21;99800.59;;;9.45;84.15
43147;BME280;28752;48.266;7.402;2023-04-19T02:42:47;99803.28;;;9.33;84.94
43147;BME280;28752;48.266;7.402;2023-04-19T02:45:13;99803.53;;;9.30;85.12
43147;BME280;28752;48.266;7.402;2023-04-19T02:47:38;99804.28;;;9.32;85.25
43147;BME280;28752;48.266;7.402;2023-04-19T02:50:04;99805.22;;;9.31;85.21
43147;BME280;28752;48.266;7.402;2023-04-19T02:52:30;99796.91;;;9.36;84.95
43147;BME280;28752;48.266;7.402;2023-04-19T02:54:55;99801.75;;;9.31;85.12
43147;BME280;28752;48.266;7.402;2023-04-19T02:57:20;99796.09;;;9.35;84.50
43147;BME280;28752;48.266;7.402;2023-04-19T02:59:46;99797.16;;;9.33;85.16
43147;BME280;28752;48.266;7.402;2023-04-19T03:02:11;99798.00;;;9.33;84.82
43147;BME280;28752;48.266;7.402;2023-04-19T03:04:36;99794.19;;;9.26;85.32
43147;BME280;28752;48.266;7.402;2023-04-19T03:07:02;99801.16;;;9.27;85.14
43147;BME280;28752;48.266;7.402;2023-04-19T03:09:27;99796.97;;;9.24;85.14
43147;BME280;28752;48.266;7.402;2023-04-19T03:11:52;99800.19;;;9.28;85.36
43147;BME280;28752;48.266;7.402;2023-04-19T03:14:18;99795.56;;;9.20;85.49
43147;BME280;28752;48.266;7.402;2023-04-19T03:16:43;99792.78;;;9.22;85.28
43147;BME280;28752;48.266;7.402;2023-04-19T03:19:09;99798.38;;;9.29;85.17
43147;BME280;28752;48.266;7.402;2023-04-19T03:21:34;99790.19;;;9.11;85.82
43147;BME280;28752;48.266;7.402;2023-04-19T03:24:00;99791.22;;;9.19;85.75
43147;BME280;28752;48.266;7.402;2023-04-19T03:26:25;99784.13;;;9.20;85.70
43147;BME280;28752;48.266;7.402;2023-04-19T03:28:51;99786.78;;;9.20;85.76
43147;BME280;28752;48.266;7.402;2023-04-19T03:31:17;99781.63;;;9.18;85.48
43147;BME280;28752;48.266;7.402;2023-04-19T03:33:42;99788.28;;;9.13;85.79
43147;BME280;28752;48.266;7.402;2023-04-19T03:36:08;99791.19;;;9.10;86.01
43147;BME280;28752;48.266;7.402;2023-04-19T03:38:33;99786.91;;;9.18;85.78
43147;BME280;28752;48.266;7.402;2023-04-19T03:40:58;99792.69;;;9.12;86.26
43147;BME280;28752;48.266;7.402;2023-04-19T03:43:24;99790.41;;;9.19;86.00
43147;BME280;28752;48.266;7.402;2023-04-19T03:45:49;99794.13;;;9.16;86.23
43147;BME280;28752;48.266;7.402;2023-04-19T03:48:15;99782.91;;;9.24;86.00
43147;BME280;28752;48.266;7.402;2023-04-19T03:50:40;99791.19;;;9.31;85.67
43147;BME280;28752;48.266;7.402;2023-04-19T03:53:06;99784.41;;;9.38;85.05
43147;BME280;28752;48.266;7.402;2023-04-19T03:55:31;99784.47;;;9.48;84.53
43147;BME280;28752;48.266;7.402;2023-04-19T03:57:57;99777.25;;;9.50;84.11
43147;BME280;28752;48.266;7.402;2023-04-19T04:00:22;99782.53;;;9.50;84.35
43147;BME280;28752;48.266;7.402;2023-04-19T04:02:47;99776.53;;;9.48;84.69
43147;BME280;28752;48.266;7.402;2023-04-19T04:05:13;99777.38;;;9.48;84.45
43147;BME280;28752;48.266;7.402;2023-04-19T04:07:39;99786.38;;;9.46;84.75
43147;BME280;28752;48.266;7.402;2023-04-19T04:10:04;99780.53;;;9.42;84.80
43147;BME280;28752;48.266;7.402;2023-04-19T04:12:30;99776.81;;;9.23;85.67
43147;BME280;28752;48.266;7.402;2023-04-19T04:14:55;99779.75;;;9.30;85.58
43147;BME280;28752;48.266;7.402;2023-04-19T04:17:21;99777.97;;;9.31;85.41
43147;BME280;28752;48.266;7.402;2023-04-19T04:19:48;99784.88;;;9.22;86.22
43147;BME280;28752;48.266;7.402;2023-04-19T04:22:13;99784.59;;;9.25;86.17
43147;BME280;28752;48.266;7.402;2023-04-19T04:24:40;99790.84;;;9.24;86.29
43147;BME280;28752;48.266;7.402;2023-04-19T04:27:09;99781.06;;;9.15;86.74
43147;BME280;28752;48.266;7.402;2023-04-19T04:29:35;99780.78;;;9.18;86.78
43147;BME280;28752;48.266;7.402;2023-04-19T04:32:02;99789.69;;;9.17;87.54
43147;BME280;28752;48.266;7.402;2023-04-19T04:34:28;99792.41;;;9.27;87.38
43147;BME280;28752;48.266;7.402;2023-04-19T04:36:53;99791.28;;;9.29;87.33
43147;BME280;28752;48.266;7.402;2023-04-19T04:39:18;99796.00;;;9.25;88.03
43147;BME280;28752;48.266;7.402;2023-04-19T04:41:44;99804.84;;;9.36;87.46
43147;BME280;28752;48.266;7.402;2023-04-19T04:44:10;99799.56;;;9.36;87.45
43147;BME280;28752;48.266;7.402;2023-04-19T04:46:36;99794.78;;;9.51;86.81
43147;BME280;28752;48.266;7.402;2023-04-19T04:49:01;99798.91;;;9.43;86.98
43147;BME280;28752;48.266;7.402;2023-04-19T04:51:27;99794.97;;;9.59;86.14
43147;BME280;28752;48.266;7.402;2023-04-19T04:53:52;99791.34;;;9.60;85.84
43147;BME280;28752;48.266;7.402;2023-04-19T04:56:18;99789.38;;;9.52;86.02
43147;BME280;28752;48.266;7.402;2023-04-19T04:58:43;99788.75;;;9.70;85.12
43147;BME280;28752;48.266;7.402;2023-04-19T05:01:09;99787.03;;;9.59;85.58
43147;BME280;28752;48.266;7.402;2023-04-19T05:03:34;99792.38;;;9.69;84.91
43147;BME280;28752;48.266;7.402;2023-04-19T05:06:00;99795.03;;;9.69;85.01
43147;BME280;28752;48.266;7.402;2023-04-19T05:08:25;99790.03;;;9.75;84.82
43147;BME280;28752;48.266;7.402;2023-04-19T05:10:51;99797.56;;;9.80;84.39
43147;BME280;28752;48.266;7.402;2023-04-19T05:13:17;99794.38;;;9.76;84.47
43147;BME280;28752;48.266;7.402;2023-04-19T05:15:42;99791.34;;;9.81;84.19
43147;BME280;28752;48.266;7.402;2023-04-19T05:18:07;99797.72;;;9.78;84.41
43147;BME280;28752;48.266;7.402;2023-04-19T05:20:33;99800.84;;;9.93;83.72
43147;BME280;28752;48.266;7.402;2023-04-19T05:22:59;99796.38;;;9.94;83.58
43147;BME280;28752;48.266;7.402;2023-04-19T05:25:26;99798.34;;;9.92;83.34
43147;BME280;28752;48.266;7.402;2023-04-19T05:27:51;99797.41;;;10.03;82.90
43147;BME280;28752;48.266;7.402;2023-04-19T05:30:17;99796.84;;;9.99;82.89
43147;BME280;28752;48.266;7.402;2023-04-19T05:32:42;99794.00;;;9.91;83.06
43147;BME280;28752;48.266;7.402;2023-04-19T05:35:08;99798.50;;;10.00;82.79
43147;BME280;28752;48.266;7.402;2023-04-19T05:37:34;99787.09;;;10.00;82.65
43147;BME280;28752;48.266;7.402;2023-04-19T05:40:00;99789.72;;;10.00;82.54
43147;BME280;28752;48.266;7.402;2023-04-19T05:42:29;99784.66;;;10.18;82.00
43147;BME280;28752;48.266;7.402;2023-04-19T05:44:54;99783.53;;;10.20;81.82
43147;BME280;28752;48.266;7.402;2023-04-19T05:47:20;99794.09;;;10.20;81.45
43147;BME280;28752;48.266;7.402;2023-04-19T05:49:45;99792.03;;;10.24;81.26
43147;BME280;28752;48.266;7.402;2023-04-19T05:52:10;99795.84;;;10.31;80.95
43147;BME280;28752;48.266;7.402;2023-04-19T05:54:36;99798.66;;;10.39;80.66
43147;BME280;28752;48.266;7.402;2023-04-19T05:57:02;99793.78;;;10.35;80.75
43147;BME280;28752;48.266;7.402;2023-04-19T05:59:27;99805.31;;;10.34;80.63
43147;BME280;28752;48.266;7.402;2023-04-19T06:01:53;99803.53;;;10.34;80.51
43147;BME280;28752;48.266;7.402;2023-04-19T06:04:20;99799.53;;;10.49;79.98
43147;BME280;28752;48.266;7.402;2023-04-19T06:06:45;99803.59;;;10.63;79.44
43147;BME280;28752;48.266;7.402;2023-04-19T06:09:11;99800.66;;;10.66;78.95
43147;BME280;28752;48.266;7.402;2023-04-19T06:11:37;99803.31;;;10.76;78.36
43147;BME280;28752;48.266;7.402;2023-04-19T06:14:03;99805.56;;;10.91;77.84
43147;BME280;28752;48.266;7.402;2023-04-19T06:16:29;99807.66;;;11.07;77.26
43147;BME280;28752;48.266;7.402;2023-04-19T06:18:54;99805.00;;;11.16;76.83
43147;BME280;28752;48.266;7.402;2023-04-19T06:21:20;99804.44;;;11.13;76.53
43147;BME280;28752;48.266;7.402;2023-04-19T06:23:46;99808.88;;;11.42;75.61
43147;BME280;28752;48.266;7.402;2023-04-19T06:26:11;99810.69;;;11.41;75.38
43147;BME280;28752;48.266;7.402;2023-04-19T06:28:36;99813.09;;;11.34;75.59
43147;BME280;28752;48.266;7.402;2023-04-19T06:31:02;99806.63;;;11.56;75.01
43147;BME280;28752;48.266;7.402;2023-04-19T06:33:27;99804.72;;;11.39;75.40
43147;BME280;28752;48.266;7.402;2023-04-19T06:35:53;99810.13;;;11.47;75.65
43147;BME280;28752;48.266;7.402;2023-04-19T06:38:18;99819.06;;;11.46;75.15
43147;BME280;28752;48.266;7.402;2023-04-19T06:40:43;99816.28;;;11.38;75.57
43147;BME280;28752;48.266;7.402;2023-04-19T06:43:09;99813.50;;;11.49;75.03
43147;BME280;28752;48.266;7.402;2023-04-19T06:45:34;99818.25;;;11.36;75.04
43147;BME280;28752;48.266;7.402;2023-04-19T06:48:00;99822.47;;;11.19;74.54
43147;BME280;28752;48.266;7.402;2023-04-19T06:50:26;99818.66;;;11.41;74.48
43147;BME280;28752;48.266;7.402;2023-04-19T06:52:52;99820.31;;;11.62;73.79
43147;BME280;28752;48.266;7.402;2023-04-19T06:55:17;99814.44;;;12.15;71.99
43147;BME280;28752;48.266;7.402;2023-04-19T06:57:42;99811.59;;;13.44;68.25
43147;BME280;28752;48.266;7.402;2023-04-19T07:00:09;99807.44;;;14.45;63.08
43147;BME280;28752;48.266;7.402;2023-04-19T07:02:34;99816.41;;;15.53;59.73
43147;BME280;28752;48.266;7.402;2023-04-19T07:05:00;99809.63;;;16.85;55.45
43147;BME280;28752;48.266;7.402;2023-04-19T07:07:25;99811.56;;;17.38;53.08
43147;BME280;28752;48.266;7.402;2023-04-19T07:09:51;99811.16;;;16.80;53.76
43147;BME280;28752;48.266;7.402;2023-04-19T07:12:16;99806.66;;;17.27;52.64
43147;BME280;28752;48.266;7.402;2023-04-19T07:14:41;99805.63;;;17.28;52.38
43147;BME280;28752;48.266;7.402;2023-04-19T07:17:06;99801.44;;;18.68;49.51
43147;BME280;28752;48.266;7.402;2023-04-19T07:19:32;99803.06;;;18.69;48.48
43147;BME280;28752;48.266;7.402;2023-04-19T07:21:59;99808.13;;;17.82;50.32
43147;BME280;28752;48.266;7.402;2023-04-19T07:24:25;99804.16;;;17.02;52.81
43147;BME280;28752;48.266;7.402;2023-04-19T07:26:53;99807.25;;;16.91;53.11
43147;BME280;28752;48.266;7.402;2023-04-19T07:29:19;99794.59;;;17.46;51.96
43147;BME280;28752;48.266;7.402;2023-04-19T07:31:44;99796.69;;;18.70;49.67
43147;BME280;28752;48.266;7.402;2023-04-19T07:34:09;99799.63;;;18.75;49.67
43147;BME280;28752;48.266;7.402;2023-04-19T07:36:35;99807.75;;;17.85;50.74
43147;BME280;28752;48.266;7.402;2023-04-19T07:39:02;99806.34;;;17.21;52.16
43147;BME280;28752;48.266;7.402;2023-04-19T07:41:29;99808.19;;;16.43;54.22
43147;BME280;28752;48.266;7.402;2023-04-19T07:43:55;99798.38;;;16.27;55.71
43147;BME280;28752;48.266;7.402;2023-04-19T07:46:20;99796.75;;;16.18;56.44
43147;BME280;28752;48.266;7.402;2023-04-19T07:48:45;99801.06;;;15.63;57.50
43147;BME280;28752;48.266;7.402;2023-04-19T07:51:12;99804.44;;;15.24;58.87
43147;BME280;28752;48.266;7.402;2023-04-19T07:53:39;99790.75;;;15.10;59.23
43147;BME280;28752;48.266;7.402;2023-04-19T07:56:07;99791.09;;;15.24;59.55
43147;BME280;28752;48.266;7.402;2023-04-19T07:58:32;99789.91;;;14.93;60.54
43147;BME280;28752;48.266;7.402;2023-04-19T08:00:58;99793.59;;;15.01;60.34
43147;BME280;28752;48.266;7.402;2023-04-19T08:03:23;99790.28;;;15.07;61.32
43147;BME280;28752;48.266;7.402;2023-04-19T08:05:49;99786.09;;;15.13;60.39
43147;BME280;28752;48.266;7.402;2023-04-19T08:08:14;99787.44;;;15.00;61.29
43147;BME280;28752;48.266;7.402;2023-04-19T08:10:40;99792.75;;;14.92;59.91
43147;BME280;28752;48.266;7.402;2023-04-19T08:13:05;99783.59;;;15.03;60.72
43147;BME280;28752;48.266;7.402;2023-04-19T08:15:34;99791.44;;;14.96;59.54
43147;BME280;28752;48.266;7.402;2023-04-19T08:17:59;99788.44;;;14.91;59.95
43147;BME280;28752;48.266;7.402;2023-04-19T08:20:25;99797.59;;;14.88;60.29
43147;BME280;28752;48.266;7.402;2023-04-19T08:22:51;99787.41;;;14.67;60.89
43147;BME280;28752;48.266;7.402;2023-04-19T08:25:16;99788.19;;;15.83;59.63
43147;BME280;28752;48.266;7.402;2023-04-19T08:27:42;99783.38;;;15.87;58.20
43147;BME280;28752;48.266;7.402;2023-04-19T08:30:07;99795.69;;;15.88;57.97
43147;BME280;28752;48.266;7.402;2023-04-19T08:32:33;99785.47;;;15.99;57.23
43147;BME280;28752;48.266;7.402;2023-04-19T08:34:58;99787.72;;;15.79;57.94
43147;BME280;28752;48.266;7.402;2023-04-19T08:37:25;99788.50;;;15.96;57.66
43147;BME280;28752;48.266;7.402;2023-04-19T08:39:50;99793.09;;;16.19;56.56
43147;BME280;28752;48.266;7.402;2023-04-19T08:42:16;99796.72;;;15.70;56.77
43147;BME280;28752;48.266;7.402;2023-04-19T08:44:41;99792.56;;;16.24;56.60
43147;BME280;28752;48.266;7.402;2023-04-19T08:47:10;99789.16;;;16.38;56.07
43147;BME280;28752;48.266;7.402;2023-04-19T08:49:38;99799.06;;;15.90;56.65
43147;BME280;28752;48.266;7.402;2023-04-19T08:52:05;99799.41;;;15.87;56.84
43147;BME280;28752;48.266;7.402;2023-04-19T08:54:31;99781.34;;;15.72;58.10
43147;BME280;28752;48.266;7.402;2023-04-19T08:56:59;99779.38;;;15.83;57.00
43147;BME280;28752;48.266;7.402;2023-04-19T08:59:26;99790.00;;;15.91;57.80
43147;BME280;28752;48.266;7.402;2023-04-19T09:01:53;99778.50;;;16.30;56.61
43147;BME280;28752;48.266;7.402;2023-04-19T09:04:19;99772.28;;;16.38;55.44
43147;BME280;28752;48.266;7.402;2023-04-19T09:06:45;99791.34;;;15.95;56.23
43147;BME280;28752;48.266;7.402;2023-04-19T09:09:20;99785.19;;;15.94;56.97
43147;BME280;28752;48.266;7.402;2023-04-19T09:11:46;99777.53;;;15.83;56.40
43147;BME280;28752;48.266;7.402;2023-04-19T09:14:16;99775.69;;;15.75;56.87
43147;BME280;28752;48.266;7.402;2023-04-19T09:16:43;99766.84;;;16.31;56.55
43147;BME280;28752;48.266;7.402;2023-04-19T09:19:09;99765.81;;;16.32;55.61
43147;BME280;28752;48.266;7.402;2023-04-19T09:21:37;99763.66;;;16.59;54.69
43147;BME280;28752;48.266;7.402;2023-04-19T09:24:03;99782.69;;;15.93;56.34
43147;BME280;28752;48.266;7.402;2023-04-19T09:26:29;99774.09;;;16.14;55.92
43147;BME280;28752;48.266;7.402;2023-04-19T09:29:02;99771.03;;;16.25;55.64
43147;BME280;28752;48.266;7.402;2023-04-19T09:31:33;99763.34;;;15.83;56.61
43147;BME280;28752;48.266;7.402;2023-04-19T09:34:19;99769.00;;;15.71;57.78
43147;BME280;28752;48.266;7.402;2023-04-19T09:36:45;99763.53;;;15.81;57.50
43147;BME280;28752;48.266;7.402;2023-04-19T09:39:12;99764.00;;;15.76;56.58
43147;BME280;28752;48.266;7.402;2023-04-19T09:41:53;99763.25;;;16.07;56.92
43147;BME280;28752;48.266;7.402;2023-04-19T09:44:19;99751.75;;;15.98;56.86
43147;BME280;28752;48.266;7.402;2023-04-19T09:46:45;99750.00;;;16.54;56.08
43147;BME280;28752;48.266;7.402;2023-04-19T09:51:51;99759.50;;;15.85;56.87
43147;BME280;28752;48.266;7.402;2023-04-19T09:54:18;99750.13;;;15.89;56.67
43147;BME280;28752;48.266;7.402;2023-04-19T09:56:45;99746.50;;;15.74;56.89
43147;BME280;28752;48.266;7.402;2023-04-19T09:59:11;99744.34;;;15.69;56.46
43147;BME280;28752;48.266;7.402;2023-04-19T10:01:57;99749.41;;;15.31;56.90
43147;BME280;28752;48.266;7.402;2023-04-19T10:04:24;99748.34;;;15.65;56.57
43147;BME280;28752;48.266;7.402;2023-04-19T10:06:52;99737.59;;;15.34;58.42
43147;BME280;28752;48.266;7.402;2023-04-19T10:09:21;99749.91;;;15.43;58.69
43147;BME280;28752;48.266;7.402;2023-04-19T10:11:48;99740.41;;;15.32;57.42
43147;BME280;28752;48.266;7.402;2023-04-19T10:14:15;99739.94;;;15.20;57.22
43147;BME280;28752;48.266;7.402;2023-04-19T10:16:41;99729.28;;;14.87;58.99
43147;BME280;28752;48.266;7.402;2023-04-19T10:19:12;99731.44;;;15.00;58.86
43147;BME280;28752;48.266;7.402;2023-04-19T10:21:40;99731.13;;;15.03;58.90
43147;BME280;28752;48.266;7.402;2023-04-19T10:24:07;99721.41;;;15.27;58.68
43147;BME280;28752;48.266;7.402;2023-04-19T10:32:20;99720.13;;;15.06;59.46
43147;BME280;28752;48.266;7.402;2023-04-19T10:34:45;99725.09;;;15.09;59.28
43147;BME280;28752;48.266;7.402;2023-04-19T10:37:14;99719.78;;;15.09;58.85
43147;BME280;28752;48.266;7.402;2023-04-19T10:39:41;99717.78;;;15.20;59.08
43147;BME280;28752;48.266;7.402;2023-04-19T10:42:07;99722.75;;;14.98;58.84
43147;BME280;28752;48.266;7.402;2023-04-19T10:44:32;99709.78;;;15.03;59.32
43147;BME280;28752;48.266;7.402;2023-04-19T10:46:58;99712.59;;;15.10;59.10
43147;BME280;28752;48.266;7.402;2023-04-19T10:49:25;99700.94;;;14.86;59.50
43147;BME280;28752;48.266;7.402;2023-04-19T10:51:52;99702.28;;;14.90;59.05
43147;BME280;28752;48.266;7.402;2023-04-19T10:54:31;99707.44;;;15.00;59.01
43147;BME280;28752;48.266;7.402;2023-04-19T10:57:04;99699.09;;;14.95;58.78
43147;BME280;28752;48.266;7.402;2023-04-19T10:59:34;99698.44;;;15.09;57.94
43147;BME280;28752;48.266;7.402;2023-04-19T11:02:04;99694.06;;;15.25;57.97
43147;BME280;28752;48.266;7.402;2023-04-19T11:06:56;99679.31;;;15.54;57.03
43147;BME280;28752;48.266;7.402;2023-04-19T11:12:13;99682.53;;;15.41;55.91
43147;BME280;28752;48.266;7.402;2023-04-19T11:14:40;99661.72;;;15.76;55.90
43147;BME280;28752;48.266;7.402;2023-04-19T11:17:16;99673.19;;;15.93;55.53
43147;BME280;28752;48.266;7.402;2023-04-19T11:19:43;99663.50;;;15.92;55.45
43147;BME280;28752;48.266;7.402;2023-04-19T11:22:08;99663.38;;;16.16;55.11
43147;BME280;28752;48.266;7.402;2023-04-19T11:24:34;99662.38;;;15.86;54.57
43147;BME280;28752;48.266;7.402;2023-04-19T11:26:59;99648.19;;;15.86;54.87
43147;BME280;28752;48.266;7.402;2023-04-19T11:29:25;99659.41;;;16.12;53.93
43147;BME280;28752;48.266;7.402;2023-04-19T11:31:50;99658.09;;;16.08;54.54
43147;BME280;28752;48.266;7.402;2023-04-19T11:34:16;99650.72;;;16.10;54.25
43147;BME280;28752;48.266;7.402;2023-04-19T11:36:50;99662.09;;;16.36;52.68
43147;BME280;28752;48.266;7.402;2023-04-19T11:39:17;99644.16;;;16.44;53.06
43147;BME280;28752;48.266;7.402;2023-04-19T11:41:42;99639.94;;;16.50;52.34
43147;BME280;28752;48.266;7.402;2023-04-19T11:44:18;99649.25;;;16.54;51.93
43147;BME280;28752;48.266;7.402;2023-04-19T11:46:57;99647.53;;;16.38;52.81
43147;BME280;28752;48.266;7.402;2023-04-19T11:49:30;99642.34;;;16.37;53.17
43147;BME280;28752;48.266;7.402;2023-04-19T11:52:01;99640.22;;;16.32;52.71
43147;BME280;28752;48.266;7.402;2023-04-19T11:54:27;99638.25;;;16.26;52.55
43147;BME280;28752;48.266;7.402;2023-04-19T11:57:28;99635.84;;;16.16;52.56
43147;BME280;28752;48.266;7.402;2023-04-19T12:00:07;99631.84;;;16.35;53.05
43147;BME280;28752;48.266;7.402;2023-04-19T12:02:37;99630.13;;;16.19;52.88
43147;BME280;28752;48.266;7.402;2023-04-19T12:05:10;99634.09;;;16.00;53.42
43147;BME280;28752;48.266;7.402;2023-04-19T12:07:36;99632.69;;;15.81;53.81
43147;BME280;28752;48.266;7.402;2023-04-19T12:10:11;99627.19;;;15.83;54.40
43147;BME280;28752;48.266;7.402;2023-04-19T12:12:37;99614.69;;;15.75;53.84
43147;BME280;28752;48.266;7.402;2023-04-19T12:15:04;99621.28;;;15.56;54.55
43147;BME280;28752;48.266;7.402;2023-04-19T12:17:30;99622.19;;;15.32;55.18
43147;BME280;28752;48.266;7.402;2023-04-19T12:19:56;99617.50;;;15.42;55.31
43147;BME280;28752;48.266;7.402;2023-04-19T12:22:21;99607.34;;;15.37;55.53
43147;BME280;28752;48.266;7.402;2023-04-19T12:24:50;99627.09;;;15.12;56.35
43147;BME280;28752;48.266;7.402;2023-04-19T12:27:17;99607.69;;;15.34;56.63
43147;BME280;28752;48.266;7.402;2023-04-19T12:29:42;99610.56;;;15.24;56.72
43147;BME280;28752;48.266;7.402;2023-04-19T12:32:09;99611.00;;;15.36;56.56
43147;BME280;28752;48.266;7.402;2023-04-19T12:34:35;99609.72;;;15.32;56.71
43147;BME280;28752;48.266;7.402;2023-04-19T12:37:01;99612.44;;;15.55;56.31
43147;BME280;28752;48.266;7.402;2023-04-19T12:39:28;99601.78;;;15.47;56.12
43147;BME280;28752;48.266;7.402;2023-04-19T12:41:55;99595.69;;;15.38;55.52
43147;BME280;28752;48.266;7.402;2023-04-19T12:44:20;99601.59;;;15.57;55.30
43147;BME280;28752;48.266;7.402;2023-04-19T12:46:46;99593.00;;;15.70;55.27
43147;BME280;28752;48.266;7.402;2023-04-19T12:49:11;99591.06;;;15.95;54.10
43147;BME280;28752;48.266;7.402;2023-04-19T12:51:36;99598.44;;;15.93;54.12
43147;BME280;28752;48.266;7.402;2023-04-19T12:54:02;99591.06;;;15.95;54.49
43147;BME280;28752;48.266;7.402;2023-04-19T12:56:27;99581.84;;;15.66;54.29
43147;BME280;28752;48.266;7.402;2023-04-19T12:58:53;99583.06;;;15.95;53.58
43147;BME280;28752;48.266;7.402;2023-04-19T13:01:18;99589.47;;;15.86;53.11
43147;BME280;28752;48.266;7.402;2023-04-19T13:03:44;99580.16;;;16.28;52.75
43147;BME280;28752;48.266;7.402;2023-04-19T13:06:09;99583.28;;;16.31;52.50
43147;BME280;28752;48.266;7.402;2023-04-19T13:08:39;99579.50;;;16.03;52.99
43147;BME280;28752;48.266;7.402;2023-04-19T13:11:05;99575.66;;;16.05;52.67
43147;BME280;28752;48.266;7.402;2023-04-19T13:13:31;99565.72;;;16.37;52.59
43147;BME280;28752;48.266;7.402;2023-04-19T13:15:56;99568.94;;;16.32;51.89